Time;durP1;ratioP1;P1;durP2;ratioP2;P2;SDS_P1;SDS_P2;PMS_P1;PMS_P2;Temp;Humidity;BMP_temperature;BMP_pressure;BME280_temperature;BME280_humidity;BME280_pressure;Samples;Min_cycle;Max_cycle;Signal;HPM_P1;HPM_P2
2023/04/19 00:00:19;;;;;;;10.68;6.75;;;8.00;99.90;;;;;;5014099;28;20191;-67
2023/04/19 00:02:44;;;;;;;14.25;7.63;;;8.00;99.90;;;;;;5013019;28;20052;-66
2023/04/19 00:05:12;;;;;;;12.07;7.32;;;7.90;99.90;;;;;;4994041;28;20033;-66
2023/04/19 00:07:37;;;;;;;12.98;7.38;;;7.90;99.90;;;;;;5010617;28;20041;-67
2023/04/19 00:10:03;;;;;;;18.33;9.18;;;7.80;99.90;;;;;;5009891;28;20485;-66
2023/04/19 00:12:29;;;;;;;14.57;8.10;;;7.80;99.90;;;;;;5008256;28;20044;-66
2023/04/19 00:14:54;;;;;;;13.68;8.45;;;7.70;99.90;;;;;;4995766;28;20034;-67
2023/04/19 00:17:21;;;;;;;17.35;9.85;;;7.80;99.90;;;;;;5025362;28;20381;-68
2023/04/19 00:19:47;;;;;;;13.32;9.10;;;7.80;99.90;;;;;;5007151;28;20053;-66
2023/04/19 00:22:13;;;;;;;18.00;8.95;;;7.70;99.90;;;;;;5006166;28;20041;-65
2023/04/19 00:24:38;;;;;;;14.25;8.23;;;7.80;99.90;;;;;;4991529;28;20050;-68
2023/04/19 00:27:04;;;;;;;13.95;8.38;;;7.80;99.90;;;;;;4994926;28;20049;-64
2023/04/19 00:29:29;;;;;;;15.60;8.05;;;7.80;99.90;;;;;;5007477;28;20037;-68
2023/04/19 00:31:55;;;;;;;15.10;8.57;;;7.80;99.90;;;;;;4990878;28;20037;-68
2023/04/19 00:34:20;;;;;;;13.65;7.30;;;7.80;99.90;;;;;;4980774;28;22625;-63
2023/04/19 00:36:46;;;;;;;11.43;7.70;;;7.70;99.90;;;;;;5017605;28;20500;-65
2023/04/19 00:39:11;;;;;;;11.77;7.28;;;7.70;99.90;;;;;;5005372;28;20150;-64
2023/04/19 00:41:37;;;;;;;13.80;7.47;;;7.70;99.90;;;;;;5022137;28;20438;-68
2023/04/19 00:44:02;;;;;;;14.73;7.40;;;7.60;99.90;;;;;;4986580;28;20039;-68
2023/04/19 00:46:28;;;;;;;17.50;7.18;;;7.70;99.90;;;;;;5006527;28;20128;-68
2023/04/19 00:48:54;;;;;;;14.55;7.35;;;7.60;99.90;;;;;;5011368;28;20053;-67
2023/04/19 00:51:20;;;;;;;11.05;6.90;;;7.60;99.90;;;;;;5004313;28;20041;-66
2023/04/19 00:53:47;;;;;;;13.77;7.32;;;7.60;99.90;;;;;;4999847;28;20128;-67
2023/04/19 00:56:13;;;;;;;12.30;7.03;;;7.50;99.90;;;;;;5006223;28;20034;-66
2023/04/19 00:58:39;;;;;;;13.95;6.95;;;7.50;99.90;;;;;;4999887;28;20058;-69
2023/04/19 01:01:05;;;;;;;12.02;6.50;;;7.40;99.90;;;;;;4982611;28;20049;-68
2023/04/19 01:03:30;;;;;;;10.60;6.45;;;7.40;99.90;;;;;;4965649;28;20081;-66
2023/04/19 01:05:56;;;;;;;11.85;6.40;;;7.30;99.90;;;;;;4984305;28;20397;-67
2023/04/19 01:08:22;;;;;;;12.63;7.35;;;7.30;99.90;;;;;;4979446;28;20558;-68
2023/04/19 01:10:48;;;;;;;13.35;6.90;;;7.20;99.90;;;;;;4981273;28;20422;-67
2023/04/19 01:13:13;;;;;;;12.02;6.97;;;7.10;99.90;;;;;;4982469;28;20100;-66
2023/04/19 01:15:39;;;;;;;12.85;6.97;;;7.20;99.90;;;;;;4980431;28;20046;-67
2023/04/19 01:18:05;;;;;;;13.13;7.00;;;7.10;99.90;;;;;;4984648;28;20049;-69
2023/04/19 01:20:30;;;;;;;13.40;7.32;;;7.10;99.90;;;;;;4985126;28;20530;-67
2023/04/19 01:22:56;;;;;;;12.50;7.15;;;7.10;99.90;;;;;;4981350;28;20474;-65
2023/04/19 01:25:22;;;;;;;11.65;6.10;;;7.00;99.90;;;;;;4986864;28;20096;-68
2023/04/19 01:27:47;;;;;;;15.40;8.20;;;7.00;99.90;;;;;;4999220;28;20054;-67
2023/04/19 01:30:13;;;;;;;12.80;7.40;;;6.90;99.90;;;;;;4986971;28;20486;-67
2023/04/19 01:32:39;;;;;;;12.57;7.93;;;6.90;99.90;;;;;;4983721;28;20045;-67
2023/04/19 01:35:05;;;;;;;11.73;7.13;;;6.90;99.90;;;;;;4981321;28;20034;-68
2023/04/19 01:37:34;;;;;;;11.73;6.65;;;6.80;99.90;;;;;;4985970;28;20048;-66
2023/04/19 01:40:00;;;;;;;12.45;7.80;;;6.70;99.90;;;;;;4985696;28;20038;-66
2023/04/19 01:42:25;;;;;;;14.55;7.90;;;6.70;99.90;;;;;;4972958;28;20105;-66
2023/04/19 01:44:51;;;;;;;14.40;7.50;;;6.70;99.90;;;;;;4989424;28;20042;-66
2023/04/19 01:47:17;;;;;;;16.40;8.10;;;6.60;99.90;;;;;;4982108;28;20100;-67
2023/04/19 01:49:42;;;;;;;12.95;7.88;;;6.60;99.90;;;;;;4989956;28;20053;-66
2023/04/19 01:52:08;;;;;;;16.15;8.45;;;6.50;99.90;;;;;;4989576;28;20042;-65
2023/04/19 01:54:33;;;;;;;15.60;7.95;;;6.40;99.90;;;;;;4994597;28;20042;-67
2023/04/19 01:56:59;;;;;;;17.98;8.32;;;6.40;99.90;;;;;;4993871;28;20046;-67
2023/04/19 01:59:24;;;;;;;17.67;9.05;;;6.30;99.90;;;;;;4997094;28;20077;-66
2023/04/19 02:01:50;;;;;;;17.38;8.38;;;6.30;99.90;;;;;;4993476;28;20043;-67
2023/04/19 02:04:18;;;;;;;17.15;9.50;;;6.30;99.90;;;;;;4991309;28;20096;-67
2023/04/19 02:06:44;;;;;;;18.73;8.25;;;6.30;99.90;;;;;;4993604;28;20128;-66
2023/04/19 02:09:10;;;;;;;15.75;9.30;;;6.30;99.90;;;;;;4993217;28;20541;-68
2023/04/19 02:11:35;;;;;;;17.95;9.93;;;6.30;99.90;;;;;;4995639;28;20104;-67
2023/04/19 02:14:01;;;;;;;17.67;9.38;;;6.20;99.90;;;;;;4986725;28;20046;-66
2023/04/19 02:16:26;;;;;;;13.85;8.93;;;6.20;99.90;;;;;;4994331;28;20068;-66
2023/04/19 02:18:55;;;;;;;17.30;10.48;;;6.20;99.90;;;;;;4987530;28;20095;-66
2023/04/19 02:21:21;;;;;;;16.98;9.65;;;6.20;99.90;;;;;;5007939;28;20426;-66
2023/04/19 02:23:46;;;;;;;15.27;8.88;;;6.20;99.90;;;;;;4975932;28;20054;-68
2023/04/19 02:26:12;;;;;;;16.08;9.25;;;6.10;99.90;;;;;;4983879;28;20081;-66
2023/04/19 02:28:38;;;;;;;16.17;8.65;;;6.10;99.90;;;;;;4991900;28;20045;-65
2023/04/19 02:31:05;;;;;;;17.17;9.15;;;6.10;99.90;;;;;;5008520;28;20061;-67
2023/04/19 02:33:30;;;;;;;17.20;8.90;;;6.10;99.90;;;;;;4970629;28;20089;-65
2023/04/19 02:35:56;;;;;;;16.85;9.02;;;6.10;99.90;;;;;;4980873;28;20037;-66
2023/04/19 02:38:22;;;;;;;15.55;8.80;;;6.10;99.90;;;;;;4994392;28;20038;-67
2023/04/19 02:40:48;;;;;;;14.85;8.35;;;6.10;99.90;;;;;;4988569;28;20673;-67
2023/04/19 02:43:13;;;;;;;15.35;8.68;;;6.10;99.90;;;;;;4991482;28;20490;-67
2023/04/19 02:45:39;;;;;;;18.25;9.55;;;6.10;99.90;;;;;;4985505;28;20517;-67
2023/04/19 02:48:05;;;;;;;15.82;8.85;;;6.10;99.90;;;;;;4987389;28;20042;-67
2023/04/19 02:50:31;;;;;;;15.13;9.27;;;6.00;99.90;;;;;;4988593;28;20049;-64
2023/04/19 02:52:57;;;;;;;18.77;8.40;;;6.00;99.90;;;;;;5008146;28;20030;-66
2023/04/19 02:55:23;;;;;;;17.17;9.43;;;6.10;99.90;;;;;;4990044;28;20417;-66
2023/04/19 02:57:48;;;;;;;15.30;8.43;;;6.00;99.90;;;;;;4990298;28;20038;-67
2023/04/19 03:00:15;;;;;;;13.88;8.13;;;6.10;99.90;;;;;;5008625;28;20054;-68
2023/04/19 03:02:42;;;;;;;15.27;7.68;;;6.10;99.90;;;;;;4992049;28;20042;-67
2023/04/19 03:05:09;;;;;;;14.18;8.02;;;6.10;99.90;;;;;;5006103;28;20045;-64
2023/04/19 03:07:35;;;;;;;14.63;7.82;;;6.00;99.90;;;;;;5019252;28;20104;-67
2023/04/19 03:10:01;;;;;;;13.68;7.63;;;6.00;99.90;;;;;;5010206;28;20045;-66
2023/04/19 03:12:26;;;;;;;13.43;7.70;;;6.00;99.90;;;;;;5011856;28;20038;-66
2023/04/19 03:14:52;;;;;;;16.35;7.28;;;6.00;99.90;;;;;;5008562;28;20034;-67
2023/04/19 03:17:17;;;;;;;12.20;6.70;;;5.90;99.90;;;;;;5008583;28;20647;-67
2023/04/19 03:19:43;;;;;;;12.10;6.47;;;5.90;99.90;;;;;;5007630;28;20128;-65
2023/04/19 03:22:09;;;;;;;15.82;7.88;;;5.80;99.90;;;;;;5008357;28;20037;-66
2023/04/19 03:24:34;;;;;;;15.57;7.90;;;5.80;99.90;;;;;;5008821;28;20470;-67
2023/04/19 03:27:00;;;;;;;15.50;7.35;;;5.80;99.90;;;;;;5009219;28;20033;-67
2023/04/19 03:29:25;;;;;;;14.52;7.53;;;5.80;99.90;;;;;;5011708;28;20110;-67
2023/04/19 03:31:51;;;;;;;19.45;7.65;;;5.70;99.90;;;;;;5006129;28;20481;-67
2023/04/19 03:34:16;;;;;;;12.18;6.90;;;5.70;99.90;;;;;;5001063;28;20033;-67
2023/04/19 03:36:42;;;;;;;14.18;7.03;;;5.60;99.90;;;;;;5004022;28;20032;-66
2023/04/19 03:39:08;;;;;;;11.63;6.35;;;5.60;99.90;;;;;;5010218;28;20111;-68
2023/04/19 03:41:33;;;;;;;12.48;6.97;;;5.60;99.90;;;;;;5009694;28;20057;-66
2023/04/19 03:43:59;;;;;;;10.05;6.25;;;5.50;99.90;;;;;;5009165;28;20041;-66
2023/04/19 03:46:25;;;;;;;13.20;6.70;;;5.50;99.90;;;;;;5009158;28;20126;-66
2023/04/19 03:48:52;;;;;;;14.18;7.43;;;5.40;99.90;;;;;;5004267;28;20041;-67
2023/04/19 03:51:17;;;;;;;12.57;7.18;;;5.40;99.90;;;;;;4987112;28;20103;-65
2023/04/19 03:53:43;;;;;;;14.65;7.03;;;5.40;99.90;;;;;;5019533;28;20493;-67
2023/04/19 03:56:08;;;;;;;15.43;7.78;;;5.40;99.90;;;;;;4995395;28;20053;-65
2023/04/19 03:58:34;;;;;;;12.95;6.82;;;5.40;99.90;;;;;;5030970;28;20065;-66
2023/04/19 04:01:00;;;;;;;11.40;5.97;;;5.40;99.90;;;;;;5014783;28;20515;-67
2023/04/19 04:03:26;;;;;;;11.88;6.60;;;5.30;99.90;;;;;;4991696;28;20038;-66
2023/04/19 04:05:51;;;;;;;13.93;7.15;;;5.30;99.90;;;;;;5010336;28;20062;-66
2023/04/19 04:08:17;;;;;;;12.98;7.40;;;5.20;99.90;;;;;;5012016;28;20087;-67
2023/04/19 04:10:42;;;;;;;11.73;7.15;;;5.20;99.90;;;;;;5010519;28;20037;-65
2023/04/19 04:13:08;;;;;;;12.57;7.13;;;5.20;99.90;;;;;;5010386;28;20371;-66
2023/04/19 04:15:34;;;;;;;14.38;7.38;;;5.10;99.90;;;;;;5010495;28;20070;-65
2023/04/19 04:17:59;;;;;;;14.55;7.28;;;5.10;99.90;;;;;;5010863;28;20129;-66
2023/04/19 04:20:25;;;;;;;14.63;6.93;;;5.00;99.90;;;;;;5009284;28;20037;-66
2023/04/19 04:22:51;;;;;;;13.48;6.72;;;5.00;99.90;;;;;;5005880;28;20041;-68
2023/04/19 04:25:17;;;;;;;13.98;6.68;;;4.90;99.90;;;;;;5006787;28;20042;-67
2023/04/19 04:27:43;;;;;;;11.60;6.85;;;4.90;99.90;;;;;;5006816;28;20036;-66
2023/04/19 04:30:10;;;;;;;11.93;6.35;;;4.90;99.90;;;;;;5008507;28;20106;-69
2023/04/19 04:32:36;;;;;;;12.15;6.57;;;4.90;99.90;;;;;;5007216;28;20033;-66
2023/04/19 04:35:05;;;;;;;12.13;6.55;;;4.90;99.90;;;;;;5005659;28;20436;-69
2023/04/19 04:37:32;;;;;;;11.50;6.13;;;4.80;99.90;;;;;;5007242;28;20511;-66
2023/04/19 04:39:59;;;;;;;13.50;6.28;;;4.80;99.90;;;;;;5005674;28;20401;-67
2023/04/19 04:42:25;;;;;;;9.70;6.10;;;4.80;99.90;;;;;;5005809;28;20404;-69
2023/04/19 04:44:51;;;;;;;10.55;5.88;;;4.80;99.90;;;;;;5021440;28;20046;-66
2023/04/19 04:47:17;;;;;;;12.23;5.93;;;4.80;99.90;;;;;;5006276;28;20485;-67
2023/04/19 04:49:42;;;;;;;13.85;6.45;;;4.90;99.90;;;;;;5003608;28;20465;-67
2023/04/19 04:52:08;;;;;;;14.50;6.57;;;4.80;99.90;;;;;;5006940;28;20214;-66
2023/04/19 04:54:34;;;;;;;9.88;6.35;;;4.80;99.90;;;;;;5005802;28;20442;-67
2023/04/19 04:57:00;;;;;;;11.18;5.88;;;4.80;99.90;;;;;;4999305;28;20041;-68
2023/04/19 04:59:26;;;;;;;11.25;6.13;;;4.90;99.90;;;;;;4983546;28;20081;-67
2023/04/19 05:01:51;;;;;;;10.88;5.72;;;4.90;99.90;;;;;;5017363;28;20108;-66
2023/04/19 05:04:18;;;;;;;11.45;5.90;;;4.90;99.90;;;;;;5006370;28;20041;-67
2023/04/19 05:06:43;;;;;;;10.27;5.20;;;4.80;99.90;;;;;;5006663;28;20416;-67
2023/04/19 05:09:10;;;;;;;9.68;5.72;;;4.80;99.90;;;;;;4998835;28;20071;-66
2023/04/19 05:11:36;;;;;;;10.63;5.90;;;4.90;99.90;;;;;;5001806;28;20044;-67
2023/04/19 05:14:02;;;;;;;10.35;6.05;;;4.90;99.90;;;;;;5004734;28;20769;-67
2023/04/19 05:16:28;;;;;;;8.52;5.75;;;4.90;99.90;;;;;;4986058;28;20044;-67
2023/04/19 05:18:54;;;;;;;9.52;5.85;;;5.00;99.90;;;;;;5004340;28;20052;-66
2023/04/19 05:21:20;;;;;;;9.55;5.55;;;5.00;99.90;;;;;;4997089;28;20067;-66
2023/04/19 05:23:46;;;;;;;13.32;6.13;;;5.10;99.70;;;;;;4998160;28;20049;-67
2023/04/19 05:26:14;;;;;;;10.85;5.82;;;5.10;99.50;;;;;;4997951;28;20045;-67
2023/04/19 05:28:40;;;;;;;10.05;5.82;;;5.20;99.40;;;;;;5023773;28;20754;-68
2023/04/19 05:31:07;;;;;;;12.57;5.82;;;5.20;98.90;;;;;;5007164;28;20045;-67
2023/04/19 05:33:33;;;;;;;9.88;5.60;;;5.30;98.60;;;;;;5010323;28;20072;-67
2023/04/19 05:35:58;;;;;;;9.98;5.28;;;5.40;97.80;;;;;;5008513;28;20108;-68
2023/04/19 05:38:24;;;;;;;7.82;4.82;;;5.40;97.60;;;;;;5012724;28;20544;-67
2023/04/19 05:40:50;;;;;;;10.82;5.43;;;5.50;96.90;;;;;;5004297;28;20042;-68
2023/04/19 05:43:15;;;;;;;8.43;4.78;;;5.60;96.00;;;;;;5007447;28;20147;-67
2023/04/19 05:45:41;;;;;;;9.43;5.10;;;5.60;94.60;;;;;;4989117;28;20623;-65
2023/04/19 05:48:06;;;;;;;6.20;4.38;;;5.70;94.40;;;;;;5007971;28;20045;-68
2023/04/19 05:50:32;;;;;;;8.63;4.82;;;5.80;93.50;;;;;;5009335;28;20034;-65
2023/04/19 05:52:57;;;;;;;8.40;5.13;;;5.90;93.30;;;;;;4991344;28;20038;-66
2023/04/19 05:55:23;;;;;;;10.40;4.90;;;6.00;93.50;;;;;;5011826;28;20049;-67
2023/04/19 05:57:49;;;;;;;8.70;4.68;;;6.10;93.30;;;;;;4996411;28;20034;-67
2023/04/19 06:00:15;;;;;;;11.18;5.07;;;6.10;92.50;;;;;;5001018;28;20624;-67
2023/04/19 06:02:40;;;;;;;9.82;4.95;;;6.20;92.50;;;;;;4982030;28;20061;-67
2023/04/19 06:05:06;;;;;;;11.02;5.30;;;6.30;92.30;;;;;;4995965;28;20049;-66
2023/04/19 06:07:32;;;;;;;10.80;5.22;;;6.30;91.80;;;;;;4998235;28;20041;-67
2023/04/19 06:09:57;;;;;;;8.30;4.40;;;6.40;92.00;;;;;;5009348;28;20042;-66
2023/04/19 06:12:23;;;;;;;7.53;4.32;;;6.60;90.00;;;;;;4996911;28;20030;-68
2023/04/19 06:14:48;;;;;;;8.45;4.55;;;6.70;91.40;;;;;;5002625;28;20038;-68
2023/04/19 06:17:15;;;;;;;6.30;4.55;;;6.90;92.00;;;;;;5016810;28;20038;-68
2023/04/19 06:19:41;;;;;;;6.32;4.05;;;7.10;92.60;;;;;;5000982;28;20049;-67
2023/04/19 06:22:07;;;;;;;9.38;4.40;;;7.30;91.00;;;;;;5005694;28;20041;-70
2023/04/19 06:24:33;;;;;;;6.15;3.97;;;7.50;93.20;;;;;;5008412;28;20512;-67
2023/04/19 06:26:58;;;;;;;11.07;4.20;;;7.70;92.10;;;;;;5006037;28;20061;-66
2023/04/19 06:29:24;;;;;;;9.50;4.25;;;7.90;91.00;;;;;;5007428;28;20046;-66
2023/04/19 06:31:50;;;;;;;9.50;4.38;;;8.10;89.30;;;;;;5006972;28;20423;-67
2023/04/19 06:34:16;;;;;;;7.22;4.22;;;8.20;90.60;;;;;;4993238;28;20484;-67
2023/04/19 06:36:41;;;;;;;6.50;4.05;;;8.40;87.00;;;;;;4999096;28;20128;-68
2023/04/19 06:39:07;;;;;;;8.18;3.95;;;8.60;87.90;;;;;;4992006;28;20038;-66
2023/04/19 06:41:32;;;;;;;5.88;4.00;;;8.80;84.10;;;;;;4999821;28;20033;-65
2023/04/19 06:43:58;;;;;;;13.07;4.15;;;8.90;81.10;;;;;;4991816;28;20049;-68
2023/04/19 06:46:24;;;;;;;6.88;3.67;;;8.90;83.60;;;;;;5007142;28;20370;-67
2023/04/19 06:48:49;;;;;;;7.78;3.67;;;9.10;82.60;;;;;;4997318;28;20042;-69
2023/04/19 06:51:15;;;;;;;6.28;3.65;;;9.20;80.90;;;;;;5007026;28;20060;-65
2023/04/19 06:53:40;;;;;;;6.15;3.70;;;9.00;74.20;;;;;;5016027;28;20038;-65
2023/04/19 06:56:06;;;;;;;4.95;3.50;;;9.20;75.20;;;;;;5017965;28;20036;-65
2023/04/19 06:58:32;;;;;;;7.63;3.80;;;9.20;73.20;;;;;;5012985;28;20057;-66
2023/04/19 07:01:00;;;;;;;4.25;3.05;;;9.10;70.80;;;;;;5009281;28;20390;-64
2023/04/19 07:03:25;;;;;;;5.75;3.67;;;9.30;68.80;;;;;;5031013;28;20405;-64
2023/04/19 07:05:51;;;;;;;5.47;3.40;;;9.40;67.80;;;;;;5029517;28;20049;-68
2023/04/19 07:08:17;;;;;;;4.28;2.88;;;9.60;69.90;;;;;;5028782;28;20087;-68
2023/04/19 07:10:43;;;;;;;6.07;3.20;;;9.90;69.70;;;;;;5003667;28;20082;-69
2023/04/19 07:13:11;;;;;;;3.95;2.67;;;10.20;70.30;;;;;;5015852;28;20037;-68
2023/04/19 07:15:37;;;;;;;5.03;2.90;;;10.50;68.80;;;;;;5020104;28;20034;-67
2023/04/19 07:18:03;;;;;;;4.68;2.88;;;10.80;69.60;;;;;;5006832;28;21042;-69
2023/04/19 07:20:30;;;;;;;7.00;2.90;;;10.90;69.10;;;;;;5013937;28;20393;-69
2023/04/19 07:22:57;;;;;;;4.55;2.50;;;11.10;68.30;;;;;;5008332;28;20461;-70
2023/04/19 07:25:22;;;;;;;5.32;2.42;;;11.20;65.50;;;;;;4988778;28;20056;-67
2023/04/19 07:27:48;;;;;;;5.30;2.80;;;11.30;64.50;;;;;;5007656;28;20045;-67
2023/04/19 07:30:14;;;;;;;5.43;2.63;;;11.50;64.10;;;;;;4994307;28;20025;-69
2023/04/19 07:32:39;;;;;;;4.60;2.53;;;11.60;62.60;;;;;;5008788;28;20081;-68
2023/04/19 07:35:06;;;;;;;3.88;2.70;;;11.50;60.80;;;;;;5009276;28;20076;-67
2023/04/19 07:37:31;;;;;;;4.30;2.63;;;11.60;60.90;;;;;;5013247;28;20045;-67
2023/04/19 07:39:57;;;;;;;4.90;2.70;;;11.50;58.90;;;;;;5000558;28;20037;-65
2023/04/19 07:42:24;;;;;;;4.40;2.63;;;11.70;59.10;;;;;;4978125;28;20123;-69
2023/04/19 07:44:49;;;;;;;3.78;2.78;;;11.90;58.90;;;;;;4979085;28;20063;-68
2023/04/19 07:47:15;;;;;;;4.22;2.90;;;12.20;59.00;;;;;;4995445;28;20040;-68
2023/04/19 07:49:43;;;;;;;7.65;2.90;;;12.30;56.30;;;;;;4996634;28;20534;-68
2023/04/19 07:52:08;;;;;;;5.50;2.83;;;12.30;56.30;;;;;;5009419;28;20041;-69
2023/04/19 07:54:34;;;;;;;6.13;3.10;;;12.40;55.50;;;;;;4995703;28;20527;-68
2023/04/19 07:57:01;;;;;;;4.80;3.15;;;12.40;55.20;;;;;;5006893;28;20608;-68
2023/04/19 07:59:26;;;;;;;5.80;3.35;;;12.50;55.00;;;;;;5008073;28;20055;-65
2023/04/19 08:01:52;;;;;;;4.78;3.00;;;12.50;51.60;;;;;;5003626;28;20038;-67
2023/04/19 08:04:18;;;;;;;5.35;3.20;;;12.30;53.50;;;;;;4999328;28;20045;-67
2023/04/19 08:06:44;;;;;;;4.82;2.75;;;12.00;52.70;;;;;;4992175;28;20149;-67
2023/04/19 08:09:10;;;;;;;4.45;3.00;;;11.90;51.40;;;;;;5010198;28;20128;-62
2023/04/19 08:11:36;;;;;;;4.00;2.80;;;12.10;51.20;;;;;;5011476;28;20049;-65
2023/04/19 08:14:01;;;;;;;3.10;2.53;;;12.20;50.00;;;;;;5010916;28;20050;-68
2023/04/19 08:16:28;;;;;;;3.33;2.30;;;12.40;50.50;;;;;;4994374;28;20125;-70
2023/04/19 08:18:54;;;;;;;5.72;2.67;;;12.90;50.40;;;;;;5010492;28;20041;-63
2023/04/19 08:21:20;;;;;;;4.10;2.20;;;12.80;47.70;;;;;;5009544;28;20069;-63
2023/04/19 08:23:46;;;;;;;5.18;2.55;;;12.90;47.30;;;;;;5027711;28;20587;-69
2023/04/19 08:26:11;;;;;;;3.45;2.22;;;12.80;48.00;;;;;;5007142;28;20056;-67
2023/04/19 08:28:37;;;;;;;4.57;2.80;;;13.20;48.20;;;;;;4990011;28;20041;-70
2023/04/19 08:31:06;;;;;;;3.03;2.50;;;13.20;47.70;;;;;;5001952;28;20053;-68
2023/04/19 08:33:32;;;;;;;4.38;2.20;;;13.20;46.30;;;;;;4998506;28;20029;-68
2023/04/19 08:35:58;;;;;;;3.55;1.95;;;13.50;45.70;;;;;;5004836;28;20037;-67
2023/04/19 08:38:23;;;;;;;4.82;1.95;;;13.60;44.50;;;;;;5009959;28;20041;-65
2023/04/19 08:40:56;;;;;;;5.25;2.30;;;14.10;44.60;;;;;;5013533;28;20049;-65
2023/04/19 08:43:24;;;;;;;3.55;2.45;;;14.30;41.90;;;;;;5011399;28;20033;-65
2023/04/19 08:45:50;;;;;;;2.33;1.90;;;14.70;40.80;;;;;;5027046;28;20048;-64
2023/04/19 08:48:17;;;;;;;5.28;2.30;;;14.70;40.80;;;;;;5009440;28;22033;-68
2023/04/19 08:50:45;;;;;;;2.50;1.90;;;15.30;42.20;;;;;;4998283;28;20095;-68
2023/04/19 08:53:11;;;;;;;3.92;2.20;;;15.30;41.00;;;;;;4999283;28;20430;-66
2023/04/19 08:55:39;;;;;;;2.17;1.92;;;15.60;39.50;;;;;;4999599;28;20099;-70
2023/04/19 08:58:05;;;;;;;2.47;1.80;;;16.00;39.70;;;;;;5003447;28;20128;-66
2023/04/19 09:00:32;;;;;;;6.57;2.17;;;16.30;38.10;;;;;;5028946;28;20469;-69
2023/04/19 09:02:58;;;;;;;2.20;1.65;;;15.80;36.40;;;;;;5007876;28;20039;-67
2023/04/19 09:05:24;;;;;;;3.50;2.05;;;15.90;37.70;;;;;;5027223;28;20440;-67
2023/04/19 09:07:50;;;;;;;3.08;2.03;;;15.80;37.20;;;;;;5016318;28;20119;-66
2023/04/19 09:10:18;;;;;;;4.40;2.20;;;16.10;37.60;;;;;;5016778;28;20065;-67
2023/04/19 09:13:03;;;;;;;5.18;2.13;;;16.40;37.00;;;;;;5015763;28;20043;-69
2023/04/19 09:15:40;;;;;;;3.85;2.42;;;16.50;35.60;;;;;;4999390;28;20057;-71
2023/04/19 09:18:08;;;;;;;6.35;2.08;;;16.00;34.10;;;;;;5006058;28;20087;-68
2023/04/19 09:20:36;;;;;;;2.17;1.90;;;15.50;36.10;;;;;;5001360;28;20037;-68
2023/04/19 09:23:06;;;;;;;2.40;1.85;;;15.10;38.10;;;;;;5001753;28;20037;-67
2023/04/19 09:25:32;;;;;;;5.25;1.80;;;15.00;35.80;;;;;;5021276;28;20033;-69
2023/04/19 09:28:10;;;;;;;3.78;1.92;;;14.80;38.10;;;;;;5016789;28;20103;-68
2023/04/19 09:30:35;;;;;;;3.13;2.83;;;14.70;38.00;;;;;;4992649;28;20141;-69
2023/04/19 09:33:01;;;;;;;2.95;2.00;;;14.60;38.60;;;;;;5011401;28;20124;-68
2023/04/19 09:35:43;;;;;;;4.45;1.80;;;14.50;38.40;;;;;;4997310;28;20408;-67
2023/04/19 09:38:10;;;;;;;2.35;1.90;;;14.70;37.70;;;;;;5013424;28;20029;-67
2023/04/19 09:40:36;;;;;;;3.72;2.08;;;14.80;38.80;;;;;;5013744;28;20033;-68
2023/04/19 09:43:02;;;;;;;4.20;1.92;;;14.80;37.90;;;;;;5013246;28;20058;-66
2023/04/19 09:45:40;;;;;;;4.50;1.80;;;14.70;36.60;;;;;;5011606;28;20064;-65
2023/04/19 09:48:06;;;;;;;3.70;1.70;;;14.40;35.00;;;;;;5010786;28;20397;-66
2023/04/19 09:50:32;;;;;;;4.85;2.10;;;14.20;35.90;;;;;;5008238;28;20050;-66
2023/04/19 09:52:58;;;;;;;5.43;1.90;;;14.00;36.20;;;;;;5013398;28;20049;-69
2023/04/19 09:55:25;;;;;;;3.40;2.05;;;13.90;36.20;;;;;;4988783;28;20046;-68
2023/04/19 09:57:51;;;;;;;6.57;1.58;;;14.40;37.70;;;;;;5013293;28;20363;-66
2023/04/19 10:00:17;;;;;;;3.67;1.75;;;14.40;36.20;;;;;;5010798;28;20087;-64
2023/04/19 10:02:46;;;;;;;3.38;1.52;;;14.40;34.90;;;;;;5030037;28;20112;-68
2023/04/19 10:05:14;;;;;;;4.18;1.73;;;14.40;34.70;;;;;;5010784;28;20050;-69
2023/04/19 10:07:40;;;;;;;2.72;1.60;;;15.00;34.90;;;;;;5006647;28;20132;-68
2023/04/19 10:10:07;;;;;;;7.40;1.80;;;15.60;33.80;;;;;;5020262;28;20088;-68
2023/04/19 10:12:34;;;;;;;4.53;1.67;;;15.60;33.50;;;;;;5015072;28;20041;-66
2023/04/19 10:14:59;;;;;;;4.68;1.80;;;15.70;30.90;;;;;;5009630;28;20041;-68
2023/04/19 10:17:25;;;;;;;2.20;1.33;;;15.30;32.00;;;;;;4995430;28;20038;-70
2023/04/19 10:20:00;;;;;;;6.63;1.40;;;15.50;32.40;;;;;;5009204;28;20029;-68
2023/04/19 10:22:26;;;;;;;3.65;1.50;;;15.90;33.00;;;;;;5001351;28;20077;-65
2023/04/19 10:25:12;;;;;;;3.22;1.42;;;15.70;32.40;;;;;;4990778;28;20034;-66
2023/04/19 10:27:50;;;;;;;3.92;1.65;;;15.50;31.20;;;;;;5006203;28;20034;-65
2023/04/19 10:30:20;;;;;;;4.80;1.95;;;15.00;31.30;;;;;;4998427;28;20049;-64
2023/04/19 10:32:55;;;;;;;2.75;1.40;;;14.60;31.80;;;;;;5007923;28;20485;-67
2023/04/19 10:35:23;;;;;;;5.30;1.55;;;14.30;32.70;;;;;;5006948;28;20046;-68
2023/04/19 10:38:08;;;;;;;3.58;1.45;;;14.30;33.80;;;;;;5006372;28;20045;-69
2023/04/19 10:40:55;;;;;;;2.78;1.50;;;14.20;31.40;;;;;;5010004;28;20045;-66
2023/04/19 10:43:24;;;;;;;1.90;1.42;;;14.10;32.20;;;;;;4995457;28;20481;-67
2023/04/19 10:45:50;;;;;;;3.13;1.63;;;14.10;33.70;;;;;;5010390;28;20049;-70
2023/04/19 10:48:26;;;;;;;1.73;1.48;;;14.40;34.50;;;;;;5004931;28;20037;-68
2023/04/19 10:51:15;;;;;;;3.70;1.58;;;14.60;34.20;;;;;;4992605;28;20535;-71
2023/04/19 10:53:49;;;;;;;2.33;1.45;;;14.80;33.60;;;;;;4997894;28;20511;-71
2023/04/19 10:56:17;;;;;;;3.63;1.40;;;15.10;34.00;;;;;;5011789;28;20045;-70
2023/04/19 10:59:03;;;;;;;1.92;1.70;;;14.80;33.60;;;;;;4997766;28;20084;-70
2023/04/19 11:01:41;;;;;;;2.05;1.33;;;15.10;34.50;;;;;;5017807;28;20120;-68
2023/04/19 11:04:12;;;;;;;2.55;1.08;;;15.20;32.70;;;;;;5010180;28;20091;-68
2023/04/19 11:06:51;;;;;;;1.90;1.52;;;14.60;30.90;;;;;;5031730;28;20045;-69
2023/04/19 11:09:31;;;;;;;2.70;1.58;;;14.70;33.30;;;;;;5012622;28;20061;-73
2023/04/19 11:12:26;;;;;;;5.40;1.73;;;15.00;32.80;;;;;;5008718;28;20524;-74
2023/04/19 11:14:56;;;;;;;1.85;1.42;;;14.60;32.60;;;;;;4997212;28;20049;-70
2023/04/19 11:17:26;;;;;;;3.93;1.90;;;14.60;33.90;;;;;;5014256;28;20033;-69
2023/04/19 11:19:52;;;;;;;;;;;14.70;33.80;;;;;;5013487;28;20292;-70
2023/04/19 11:22:17;;;;;;;2.00;1.50;;;14.80;35.20;;;;;;5013999;28;19917;-65
2023/04/19 11:24:47;;;;;;;2.92;1.77;;;14.80;34.10;;;;;;5013161;28;20077;-70
2023/04/19 11:27:12;;;;;;;3.63;1.80;;;14.60;33.00;;;;;;5013816;28;20053;-68
2023/04/19 11:29:38;;;;;;;2.35;1.65;;;14.60;33.60;;;;;;5013991;28;20374;-67
2023/04/19 11:32:04;;;;;;;3.70;2.10;;;14.40;34.20;;;;;;5013052;28;20401;-64
2023/04/19 11:34:37;;;;;;;2.97;2.08;;;14.20;33.00;;;;;;5004680;28;20041;-66
2023/04/19 11:37:03;;;;;;;3.58;1.90;;;13.90;34.70;;;;;;4995149;28;20053;-67
2023/04/19 11:39:28;;;;;;;9.15;2.10;;;14.20;35.40;;;;;;4998234;28;20049;-68
2023/04/19 11:41:55;;;;;;;2.67;1.60;;;14.30;34.70;;;;;;5011164;28;20398;-67
2023/04/19 11:44:20;;;;;;;2.60;2.00;;;14.10;34.40;;;;;;5012633;28;20067;-68
2023/04/19 11:47:01;;;;;;;2.53;1.77;;;14.00;34.70;;;;;;5011240;28;20539;-70
2023/04/19 11:49:28;;;;;;;3.38;2.00;;;14.20;36.80;;;;;;5010246;28;20056;-71
2023/04/19 11:52:04;;;;;;;4.47;2.60;;;14.50;37.20;;;;;;5028837;28;20049;-64
2023/04/19 11:54:29;;;;;;;6.43;2.65;;;14.60;36.90;;;;;;5012409;28;20045;-65
2023/04/19 11:56:59;;;;;;;3.08;2.40;;;14.70;35.70;;;;;;5031831;28;20128;-66
2023/04/19 11:59:24;;;;;;;2.95;2.05;;;14.50;36.50;;;;;;4984646;28;20465;-66
2023/04/19 12:01:50;;;;;;;3.05;2.40;;;14.90;36.40;;;;;;5009156;28;20046;-66
2023/04/19 12:04:15;;;;;;;4.05;2.13;;;15.10;36.40;;;;;;5005981;28;20088;-66
2023/04/19 12:06:41;;;;;;;5.00;2.75;;;15.40;35.90;;;;;;4991988;28;20037;-68
2023/04/19 12:09:10;;;;;;;4.07;2.60;;;15.40;36.30;;;;;;4992817;28;20132;-67
2023/04/19 12:11:44;;;;;;;3.75;2.30;;;15.30;36.70;;;;;;4991375;28;20081;-68
2023/04/19 12:14:14;;;;;;;4.32;2.50;;;15.00;34.80;;;;;;5011088;28;20042;-68
2023/04/19 12:16:40;;;;;;;3.55;2.63;;;14.90;35.80;;;;;;4991507;28;20532;-64
2023/04/19 12:19:16;;;;;;;3.70;2.60;;;15.10;36.20;;;;;;5007776;28;20038;-65
2023/04/19 12:21:42;;;;;;;5.65;2.80;;;15.10;37.50;;;;;;4994381;28;20045;-68
2023/04/19 12:24:08;;;;;;;3.90;2.88;;;15.40;37.70;;;;;;4969392;28;20050;-68
2023/04/19 12:26:34;;;;;;;3.88;2.40;;;15.40;37.20;;;;;;4974415;28;20097;-72
2023/04/19 12:29:02;;;;;;;3.90;2.38;;;15.80;37.50;;;;;;5000223;28;20069;-68
2023/04/19 12:31:30;;;;;;;2.47;2.17;;;15.90;37.60;;;;;;4992294;28;20453;-65
2023/04/19 12:33:56;;;;;;;3.10;2.50;;;16.20;37.40;;;;;;4976915;28;20454;-67
2023/04/19 12:36:22;;;;;;;3.25;2.35;;;16.00;37.00;;;;;;5009257;28;20108;-68
2023/04/19 12:38:47;;;;;;;4.78;2.63;;;16.30;36.60;;;;;;4991422;28;20045;-68
2023/04/19 12:41:13;;;;;;;3.00;2.10;;;16.60;36.00;;;;;;5010065;28;20451;-70
2023/04/19 12:43:38;;;;;;;4.07;2.60;;;16.90;35.90;;;;;;4992899;28;20743;-69
2023/04/19 12:46:04;;;;;;;3.60;2.38;;;17.60;35.60;;;;;;5010275;28;20053;-70